createdAt,value
2022-12-15T00:01:28.750Z,46.67
2022-12-15T00:04:14.064Z,43.40
2022-12-15T00:06:59.239Z,45.42
2022-12-15T00:09:44.405Z,46.60
2022-12-15T00:12:29.620Z,46.40
2022-12-15T00:15:14.804Z,50.70
2022-12-15T00:17:59.981Z,47.40
2022-12-15T00:20:45.063Z,49.17
2022-12-15T00:23:31.038Z,50.85
2022-12-15T00:26:16.800Z,43.50
2022-12-15T00:29:01.722Z,48.13
2022-12-15T00:31:47.004Z,42.65
2022-12-15T00:34:32.199Z,43.25
2022-12-15T00:37:17.221Z,44.58
2022-12-15T00:39:43.730Z,47.17
2022-12-15T00:42:10.484Z,46.78
2022-12-15T00:44:39.797Z,43.97
2022-12-15T00:47:06.325Z,40.97
2022-12-15T00:49:51.671Z,39.97
2022-12-15T00:52:36.866Z,44.97
2022-12-15T00:55:23.422Z,47.70
2022-12-15T00:58:08.331Z,42.97
2022-12-15T01:00:53.460Z,44.65
2022-12-15T01:03:40.387Z,46.33
2022-12-15T01:06:32.485Z,42.63
2022-12-15T01:09:17.350Z,40.90
2022-12-15T01:12:02.400Z,46.17
2022-12-15T01:14:47.741Z,44.17
2022-12-15T01:17:32.836Z,50.38
2022-12-15T01:20:06.267Z,51.28
2022-12-15T01:24:59.037Z,41.63
2022-12-15T01:27:25.444Z,43.72
2022-12-15T01:29:51.893Z,48.22
2022-12-15T01:32:18.438Z,45.35
2022-12-15T01:34:44.908Z,49.78
2022-12-15T01:37:11.316Z,50.80
2022-12-15T01:39:56.556Z,46.17
2022-12-15T01:42:23.299Z,46.75
2022-12-15T01:44:51.369Z,47.60
2022-12-15T01:47:18.014Z,51.30
2022-12-15T01:49:47.693Z,51.05
2022-12-15T01:52:16.708Z,49.38
2022-12-15T01:54:48.606Z,51.03
2022-12-15T01:57:19.016Z,43.95
2022-12-15T01:59:51.573Z,45.13
2022-12-15T02:02:20.541Z,51.13
2022-12-15T02:04:48.710Z,52.00
2022-12-15T02:07:16.220Z,49.10
2022-12-15T02:09:43.469Z,51.72
2022-12-15T02:12:22.192Z,53.38
2022-12-15T02:15:07.525Z,45.92
2022-12-15T02:17:51.245Z,47.97
2022-12-15T02:22:54.665Z,50.85
2022-12-15T02:25:28.763Z,44.03
2022-12-15T02:27:59.190Z,50.33
2022-12-15T02:30:41.308Z,44.38
2022-12-15T02:33:11.504Z,40.80
2022-12-15T02:35:44.032Z,45.28
2022-12-15T02:38:10.666Z,42.40
2022-12-15T02:40:37.254Z,45.60
2022-12-15T02:43:05.712Z,49.20
2022-12-15T02:45:50.260Z,44.83
2022-12-15T02:48:19.770Z,53.72
2022-12-15T02:50:49.607Z,46.90
2022-12-15T02:53:39.010Z,47.15
2022-12-15T02:56:17.943Z,46.40
2022-12-15T02:58:54.561Z,48.20
2022-12-15T03:01:23.979Z,51.22
2022-12-15T03:03:50.730Z,45.65
2022-12-15T03:06:17.424Z,52.28
2022-12-15T03:08:43.850Z,46.25
2022-12-15T03:11:10.260Z,46.47
2022-12-15T03:13:36.665Z,44.35
2022-12-15T03:16:03.222Z,47.13
2022-12-15T03:18:29.687Z,50.80
2022-12-15T03:20:56.142Z,44.65
2022-12-15T03:23:23.197Z,46.58
2022-12-15T03:25:50.431Z,48.13
2022-12-15T03:28:18.949Z,50.83
2022-12-15T03:30:45.469Z,47.90
2022-12-15T03:33:17.425Z,50.53
2022-12-15T03:35:43.993Z,50.30
2022-12-15T03:38:10.409Z,44.58
2022-12-15T03:40:36.817Z,44.20
2022-12-15T03:43:03.242Z,46.50
2022-12-15T03:45:29.807Z,58.50
2022-12-15T03:47:56.956Z,47.33
2022-12-15T03:50:25.033Z,43.42
2022-12-15T03:52:52.653Z,41.38
2022-12-15T03:55:19.767Z,42.45
2022-12-15T03:57:46.561Z,45.72
2022-12-15T04:00:14.963Z,43.47
2022-12-15T04:02:41.984Z,51.63
2022-12-15T04:05:09.338Z,43.53
2022-12-15T04:07:35.760Z,56.53
2022-12-15T04:10:02.204Z,47.08
2022-12-15T04:12:28.615Z,53.83
2022-12-15T04:14:55.118Z,48.83
2022-12-15T04:17:21.514Z,53.35
2022-12-15T04:20:06.692Z,54.53
2022-12-15T04:22:33.148Z,62.08
2022-12-15T04:25:18.408Z,53.85
2022-12-15T04:28:03.527Z,51.13
2022-12-15T04:30:54.973Z,54.97
2022-12-15T04:33:40.233Z,54.03
2022-12-15T04:36:26.548Z,47.58
2022-12-15T04:39:11.442Z,54.08
2022-12-15T04:41:56.549Z,49.63
2022-12-15T04:44:41.644Z,50.97
2022-12-15T04:47:26.794Z,54.85
2022-12-15T04:50:12.033Z,52.70
2022-12-15T04:52:57.116Z,55.90
2022-12-15T04:55:42.320Z,57.10
2022-12-15T04:58:27.955Z,59.50
2022-12-15T05:01:15.072Z,60.05
2022-12-15T05:04:00.490Z,57.00
2022-12-15T05:06:45.884Z,58.60
2022-12-15T05:09:30.963Z,58.88
2022-12-15T05:15:41.265Z,53.25
2022-12-15T05:18:31.760Z,49.97
2022-12-15T05:21:23.162Z,59.35
2022-12-15T05:24:11.221Z,59.25
2022-12-15T05:26:57.723Z,54.78
2022-12-15T05:29:42.763Z,50.20
2022-12-15T05:32:09.319Z,54.97
2022-12-15T05:34:36.499Z,55.53
2022-12-15T05:37:03.937Z,61.22
2022-12-15T05:39:30.635Z,54.78
2022-12-15T05:41:57.553Z,59.28
2022-12-15T05:44:26.542Z,48.90
2022-12-15T05:46:53.219Z,54.25
2022-12-15T05:49:19.978Z,54.08
2022-12-15T05:51:47.205Z,57.08
2022-12-15T05:54:17.576Z,59.20
2022-12-15T05:56:44.296Z,58.08
2022-12-15T05:59:11.328Z,52.55
2022-12-15T06:01:41.528Z,58.58
2022-12-15T06:04:08.223Z,55.20
2022-12-15T06:06:34.683Z,58.78
2022-12-15T06:09:01.199Z,50.80
2022-12-15T06:11:27.756Z,57.67
2022-12-15T06:13:55.200Z,58.30
2022-12-15T06:16:23.526Z,55.85
2022-12-15T06:18:51.487Z,53.88
2022-12-15T06:21:21.799Z,58.40
2022-12-15T06:23:48.262Z,58.33
2022-12-15T06:26:17.574Z,68.28
2022-12-15T06:28:44.283Z,62.80
2022-12-15T06:31:11.850Z,62.40
2022-12-15T06:33:38.767Z,69.63
2022-12-15T06:36:09.884Z,55.50
2022-12-15T06:38:36.704Z,60.75
2022-12-15T06:41:03.617Z,68.75
2022-12-15T06:43:31.086Z,61.95
2022-12-15T06:45:58.068Z,61.10
2022-12-15T06:48:24.617Z,60.17
2022-12-15T06:50:52.836Z,60.10
2022-12-15T06:53:20.157Z,57.22
2022-12-15T06:55:47.373Z,63.17
2022-12-15T06:58:14.586Z,61.67
2022-12-15T07:00:42.262Z,58.67
2022-12-15T07:03:16.590Z,57.08
2022-12-15T07:05:43.887Z,59.72
2022-12-15T07:08:11.568Z,61.53
2022-12-15T07:10:42.360Z,58.42
2022-12-15T07:13:10.224Z,58.70
2022-12-15T07:15:36.991Z,57.25
2022-12-15T07:18:03.725Z,56.92
2022-12-15T07:20:30.420Z,53.38
2022-12-15T07:22:56.947Z,58.22
2022-12-15T07:25:27.364Z,56.20
2022-12-15T07:27:53.914Z,57.85
2022-12-15T07:30:25.775Z,66.35
2022-12-15T07:32:52.334Z,51.38
2022-12-15T07:35:18.834Z,57.92
2022-12-15T07:37:45.743Z,55.13
2022-12-15T07:40:12.364Z,53.45
2022-12-15T07:42:38.872Z,60.95
2022-12-15T07:45:12.959Z,57.45
2022-12-15T07:47:39.398Z,60.88
2022-12-15T07:50:08.662Z,55.83
2022-12-15T07:52:35.186Z,57.90
2022-12-15T07:55:01.625Z,56.20
2022-12-15T07:57:28.359Z,53.33
2022-12-15T07:59:55.003Z,62.53
2022-12-15T08:02:21.653Z,56.53
2022-12-15T08:04:48.264Z,59.83
2022-12-15T08:07:14.771Z,53.17
2022-12-15T08:09:41.319Z,73.93
2022-12-15T08:12:10.934Z,67.40
2022-12-15T08:14:37.428Z,57.90
2022-12-15T08:17:04.031Z,62.85
2022-12-15T08:19:30.951Z,63.67
2022-12-15T08:21:57.683Z,65.07
2022-12-15T08:24:24.100Z,64.88
2022-12-15T08:26:53.245Z,68.20
2022-12-15T08:32:06.370Z,61.08
2022-12-15T08:34:32.938Z,59.17
2022-12-15T08:36:59.343Z,59.95
2022-12-15T08:39:25.821Z,65.70
2022-12-15T08:41:52.294Z,64.53
2022-12-15T08:44:18.852Z,66.85
2022-12-15T08:46:45.337Z,64.85
2022-12-15T08:49:15.258Z,62.28
2022-12-15T08:51:44.483Z,68.88
2022-12-15T08:54:10.946Z,68.88
2022-12-15T08:56:37.439Z,60.08
2022-12-15T08:59:03.919Z,67.30
2022-12-15T09:01:32.524Z,61.72
2022-12-15T09:03:59.933Z,59.30
2022-12-15T09:06:28.014Z,54.78
2022-12-15T09:08:58.246Z,55.92
2022-12-15T09:11:25.337Z,52.03
2022-12-15T09:13:51.963Z,63.83
2022-12-15T09:16:19.007Z,61.65
2022-12-15T09:18:47.805Z,62.35
2022-12-15T09:21:14.931Z,62.05
2022-12-15T09:23:41.446Z,58.38
2022-12-15T09:26:15.040Z,62.90
2022-12-15T09:28:41.822Z,79.45
2022-12-15T09:31:09.550Z,62.22
2022-12-15T09:33:36.471Z,65.22
2022-12-15T09:36:03.920Z,65.43
2022-12-15T09:38:31.099Z,58.47
2022-12-15T09:40:57.683Z,58.65
2022-12-15T09:43:46.655Z,59.83
2022-12-15T09:46:20.930Z,62.15
2022-12-15T09:48:48.321Z,62.53
2022-12-15T09:51:16.735Z,59.88
2022-12-15T09:53:59.052Z,65.45
2022-12-15T09:56:44.026Z,52.47
2022-12-15T09:59:42.835Z,54.53
2022-12-15T10:02:13.599Z,56.88
2022-12-15T10:04:53.631Z,56.33
2022-12-15T10:07:21.767Z,57.78
2022-12-15T10:09:48.251Z,55.20
2022-12-15T10:12:24.741Z,56.55
2022-12-15T10:15:05.799Z,54.35
2022-12-15T10:17:35.207Z,58.22
2022-12-15T10:20:28.714Z,60.03
2022-12-15T10:22:58.016Z,68.57
2022-12-15T10:28:12.947Z,64.07
2022-12-15T10:30:50.887Z,59.70
2022-12-15T10:33:22.310Z,51.88
2022-12-15T10:35:49.039Z,64.65
2022-12-15T10:38:34.389Z,70.00
2022-12-15T10:41:08.908Z,58.38
2022-12-15T10:43:40.565Z,67.65
2022-12-15T10:46:13.569Z,62.17
2022-12-15T10:48:41.170Z,64.97
2022-12-15T10:51:15.705Z,60.10
2022-12-15T10:54:09.638Z,55.70
2022-12-15T10:56:46.309Z,59.08
2022-12-15T10:59:22.823Z,57.13
2022-12-15T11:01:49.390Z,55.37
2022-12-15T11:04:27.612Z,52.47
2022-12-15T11:06:58.055Z,49.28
2022-12-15T11:09:38.108Z,61.88
2022-12-15T11:12:50.668Z,51.20
2022-12-15T11:15:23.099Z,57.88
2022-12-15T11:18:11.443Z,52.35
2022-12-15T11:20:40.237Z,64.53
2022-12-15T11:23:16.084Z,48.88
2022-12-15T11:25:47.129Z,50.75
2022-12-15T11:28:37.654Z,55.53
2022-12-15T11:31:09.436Z,48.78
2022-12-15T11:33:36.309Z,65.03
2022-12-15T11:36:03.377Z,63.95
2022-12-15T11:38:38.594Z,72.45
2022-12-15T11:41:11.903Z,55.78
2022-12-15T11:43:53.732Z,49.15
2022-12-15T11:46:21.096Z,45.88
2022-12-15T11:48:47.514Z,45.92
2022-12-15T11:51:21.021Z,46.33
2022-12-15T11:54:02.745Z,55.13
2022-12-15T11:56:29.455Z,48.70
2022-12-15T11:59:14.760Z,46.05
2022-12-15T12:02:02.790Z,41.47
2022-12-15T12:04:30.036Z,45.38
2022-12-15T12:06:57.458Z,46.53
2022-12-15T12:09:35.431Z,42.35
2022-12-15T12:12:16.239Z,44.50
2022-12-15T12:18:06.023Z,45.42
2022-12-15T12:20:51.341Z,45.95
2022-12-15T12:23:22.298Z,56.35
2022-12-15T12:26:03.039Z,54.03
2022-12-15T12:28:40.313Z,46.50
2022-12-15T12:31:13.409Z,51.28
2022-12-15T12:33:44.243Z,45.15
2022-12-15T12:36:13.416Z,41.83
2022-12-15T12:38:46.063Z,41.40
2022-12-15T12:41:30.732Z,41.00
2022-12-15T12:44:00.963Z,38.00
2022-12-15T12:46:30.772Z,36.00
2022-12-15T12:49:07.760Z,39.00
2022-12-15T12:51:36.162Z,44.88
2022-12-15T12:54:02.684Z,41.03
2022-12-15T12:56:32.297Z,38.88
2022-12-15T12:58:58.909Z,38.85
2022-12-15T13:01:32.948Z,40.05
2022-12-15T13:04:12.851Z,39.50
2022-12-15T13:06:39.521Z,42.35
2022-12-15T13:09:19.346Z,44.50
2022-12-15T13:11:45.829Z,44.70
2022-12-15T13:14:25.556Z,48.78
2022-12-15T13:17:24.856Z,44.13
2022-12-15T13:20:06.931Z,40.10
2022-12-15T13:22:34.484Z,46.08
2022-12-15T13:25:01.416Z,44.95
2022-12-15T13:27:38.145Z,40.10
2022-12-15T13:30:07.585Z,41.08
2022-12-15T13:32:38.514Z,45.17
2022-12-15T13:35:25.410Z,41.65
2022-12-15T13:37:55.992Z,44.30
2022-12-15T13:40:25.563Z,37.22
2022-12-15T13:42:59.130Z,45.17
2022-12-15T13:47:55.117Z,47.13
2022-12-15T13:50:51.427Z,41.90
2022-12-15T13:53:21.097Z,36.47
2022-12-15T13:55:57.135Z,46.90
2022-12-15T13:58:24.381Z,44.05
2022-12-15T14:00:57.081Z,41.05
2022-12-15T14:03:24.059Z,40.47
2022-12-15T14:06:02.424Z,47.65
2022-12-15T14:08:30.444Z,41.30
2022-12-15T14:11:16.624Z,45.72
2022-12-15T14:13:52.357Z,40.95
2022-12-15T14:16:22.469Z,43.60
2022-12-15T14:19:15.676Z,42.17
2022-12-15T14:21:51.246Z,45.22
2022-12-15T14:24:40.196Z,41.50
2022-12-15T14:27:07.413Z,43.97
2022-12-15T14:29:33.818Z,50.22
2022-12-15T14:32:00.749Z,42.47
2022-12-15T14:34:33.357Z,42.92
2022-12-15T14:37:02.337Z,43.03
2022-12-15T14:39:53.082Z,43.10
2022-12-15T14:42:26.331Z,41.65
2022-12-15T14:48:30.353Z,44.92
2022-12-15T14:50:46.329Z,43.30
2022-12-15T14:53:15.451Z,46.78
2022-12-15T14:55:59.378Z,49.40
2022-12-15T14:58:34.569Z,53.15
2022-12-15T15:01:03.724Z,52.75
2022-12-15T15:03:03.980Z,59.83
2022-12-15T15:03:07.047Z,44.25
2022-12-15T15:03:42.590Z,51.88
2022-12-15T15:06:22.284Z,52.22
2022-12-15T15:08:53.176Z,54.00
2022-12-15T15:11:58.315Z,57.15
2022-12-15T15:14:33.115Z,56.78
2022-12-15T15:17:25.998Z,53.22
2022-12-15T15:19:55.848Z,62.70
2022-12-15T15:22:43.244Z,49.50
2022-12-15T15:25:41.580Z,55.17
2022-12-15T15:28:23.037Z,50.08
2022-12-15T15:30:49.532Z,53.85
2022-12-15T15:33:16.563Z,48.78
2022-12-15T15:35:44.214Z,51.42
2022-12-15T15:38:17.750Z,48.10
2022-12-15T15:43:12.557Z,47.63
2022-12-15T15:45:40.591Z,46.08
2022-12-15T15:48:07.319Z,50.60
2022-12-15T15:50:34.723Z,53.60
2022-12-15T15:53:01.237Z,51.50
2022-12-15T15:55:39.705Z,50.03
2022-12-15T15:58:10.900Z,53.75
2022-12-15T16:00:40.314Z,57.42
2022-12-15T16:03:18.857Z,61.55
2022-12-15T16:05:45.946Z,60.95
2022-12-15T16:08:19.693Z,62.10
2022-12-15T16:10:47.698Z,59.90
2022-12-15T16:13:23.981Z,55.55
2022-12-15T16:15:52.968Z,62.33
2022-12-15T16:18:20.098Z,63.80
2022-12-15T16:20:47.623Z,60.35
2022-12-15T16:23:16.339Z,66.10
2022-12-15T16:25:50.512Z,64.88
2022-12-15T16:28:24.706Z,61.63
2022-12-15T16:30:51.597Z,54.38
2022-12-15T16:33:18.213Z,65.78
2022-12-15T16:35:45.619Z,62.22
2022-12-15T16:38:18.197Z,65.47
2022-12-15T16:40:45.023Z,60.70
2022-12-15T16:43:18.649Z,83.78
2022-12-15T16:45:45.855Z,78.13
2022-12-15T16:48:13.046Z,79.25
2022-12-15T16:50:40.850Z,84.60
2022-12-15T16:53:12.200Z,94.53
2022-12-15T16:55:40.375Z,91.97
2022-12-15T16:58:07.100Z,98.13
2022-12-15T17:00:34.304Z,104.38
2022-12-15T17:03:01.582Z,101.60
2022-12-15T17:05:31.192Z,85.97
2022-12-15T17:07:58.424Z,90.45
2022-12-15T17:10:26.222Z,94.25
2022-12-15T17:12:54.259Z,84.97
2022-12-15T17:15:27.739Z,70.38
2022-12-15T17:20:31.292Z,67.75
2022-12-15T17:23:10.482Z,68.28
2022-12-15T17:26:19.542Z,77.85
2022-12-15T17:28:36.676Z,73.60
2022-12-15T17:31:03.803Z,73.47
2022-12-15T17:33:33.900Z,66.90
2022-12-15T17:36:03.136Z,72.20
2022-12-15T17:38:29.868Z,68.78
2022-12-15T17:40:56.759Z,74.45
2022-12-15T17:43:28.164Z,69.40
2022-12-15T17:45:58.684Z,71.78
2022-12-15T17:48:25.235Z,70.43
2022-12-15T17:50:53.298Z,69.85
2022-12-15T17:53:21.857Z,65.88
2022-12-15T17:55:52.807Z,63.92
2022-12-15T17:58:26.209Z,81.05
2022-12-15T18:00:53.694Z,75.60
2022-12-15T18:03:21.316Z,74.38
2022-12-15T18:05:52.385Z,83.30
2022-12-15T18:08:20.310Z,74.78
2022-12-15T18:10:47.702Z,76.65
2022-12-15T18:13:18.551Z,94.43
2022-12-15T18:15:45.189Z,73.10
2022-12-15T18:18:12.374Z,74.45
2022-12-15T18:20:39.129Z,78.95
2022-12-15T18:23:15.398Z,81.45
2022-12-15T18:25:44.952Z,72.35
2022-12-15T18:28:28.426Z,82.75
2022-12-15T18:31:14.826Z,70.50
2022-12-15T18:33:41.472Z,82.45
2022-12-15T18:36:09.350Z,76.70
2022-12-15T18:38:36.013Z,70.22
2022-12-15T18:41:04.305Z,73.85
2022-12-15T18:43:32.589Z,76.47
2022-12-15T18:45:59.630Z,71.20
2022-12-15T18:48:30.100Z,64.88
2022-12-15T18:50:57.415Z,76.70
2022-12-15T18:53:23.846Z,73.70
2022-12-15T18:55:50.482Z,78.45
2022-12-15T18:58:24.639Z,70.88
2022-12-15T19:00:52.254Z,73.97
2022-12-15T19:03:20.942Z,69.68
2022-12-15T19:05:48.019Z,73.93
2022-12-15T19:08:20.162Z,75.38
2022-12-15T19:11:02.888Z,77.28
2022-12-15T19:13:31.548Z,74.32
2022-12-15T19:15:58.913Z,78.40
2022-12-15T19:19:02.836Z,78.85
2022-12-15T19:21:48.400Z,70.10
2022-12-15T19:24:16.638Z,72.88
2022-12-15T19:26:43.292Z,71.80
2022-12-15T19:29:20.383Z,66.68
2022-12-15T19:31:47.531Z,66.82
2022-12-15T19:34:14.505Z,67.05
2022-12-15T19:36:41.303Z,80.55
2022-12-15T19:39:08.876Z,74.90
2022-12-15T19:41:36.415Z,84.60
2022-12-15T19:44:02.951Z,75.00
2022-12-15T19:46:40.062Z,74.75
2022-12-15T19:49:06.720Z,79.22
2022-12-15T19:51:33.250Z,80.97
2022-12-15T19:53:59.977Z,67.07
2022-12-15T19:56:27.163Z,65.90
2022-12-15T19:58:53.836Z,65.75
2022-12-15T20:01:21.394Z,70.03
2022-12-15T20:03:52.444Z,61.45
2022-12-15T20:06:20.846Z,69.80
2022-12-15T20:08:48.710Z,63.22
2022-12-15T20:11:17.447Z,71.43
2022-12-15T20:13:44.449Z,71.05
2022-12-15T20:16:11.247Z,78.95
2022-12-15T20:18:38.010Z,73.75
2022-12-15T20:21:04.735Z,70.90
2022-12-15T20:23:32.146Z,72.18
2022-12-15T20:25:58.802Z,72.90
2022-12-15T20:28:54.634Z,71.47
2022-12-15T20:31:54.184Z,71.82
2022-12-15T20:34:38.004Z,65.28
2022-12-15T20:39:54.048Z,65.03
2022-12-15T20:42:23.926Z,67.47
2022-12-15T20:44:50.367Z,68.18
2022-12-15T20:47:24.125Z,72.45
2022-12-15T20:49:51.740Z,74.35
2022-12-15T20:52:25.961Z,72.72
2022-12-15T20:54:55.685Z,71.45
2022-12-15T20:57:24.957Z,64.63
2022-12-15T20:59:51.503Z,69.85
2022-12-15T21:02:25.422Z,71.15
2022-12-15T21:04:52.020Z,64.30
2022-12-15T21:07:27.226Z,67.70
2022-12-15T21:09:56.668Z,70.32
2022-12-15T21:12:26.080Z,76.47
2022-12-15T21:17:35.268Z,68.07
2022-12-15T21:20:05.460Z,73.90
2022-12-15T21:22:32.007Z,75.38
2022-12-15T21:25:04.798Z,69.43
2022-12-15T21:27:31.293Z,61.13
2022-12-15T21:29:57.698Z,63.67
2022-12-15T21:32:24.266Z,60.60
2022-12-15T21:34:51.693Z,65.20
2022-12-15T21:37:30.440Z,63.78
2022-12-15T21:39:58.127Z,63.78
2022-12-15T21:42:24.888Z,60.55
2022-12-15T21:44:51.465Z,62.15
2022-12-15T21:47:25.697Z,62.47
2022-12-15T21:49:52.379Z,54.75
2022-12-15T21:52:19.501Z,56.25
2022-12-15T21:54:46.080Z,48.97
2022-12-15T21:57:12.906Z,59.25
2022-12-15T21:59:39.802Z,53.42
2022-12-15T22:02:22.834Z,60.00
2022-12-15T22:04:51.751Z,54.97
2022-12-15T22:07:18.294Z,57.17
2022-12-15T22:09:44.944Z,61.47
2022-12-15T22:12:19.513Z,56.63
2022-12-15T22:14:49.021Z,58.58
2022-12-15T22:17:20.434Z,59.17
2022-12-15T22:19:54.714Z,57.53
2022-12-15T22:22:30.119Z,61.47
2022-12-15T22:24:58.317Z,57.25
2022-12-15T22:27:33.028Z,59.85
2022-12-15T22:29:59.666Z,59.22
2022-12-15T22:32:26.283Z,64.15
2022-12-15T22:34:52.709Z,61.22
2022-12-15T22:37:21.249Z,66.07
2022-12-15T22:39:49.542Z,66.10
2022-12-15T22:42:18.263Z,62.05
2022-12-15T22:44:45.254Z,66.10
2022-12-15T22:47:12.044Z,72.30
2022-12-15T22:49:39.387Z,79.63
2022-12-15T22:52:26.103Z,73.05
2022-12-15T22:54:56.839Z,73.22
2022-12-15T22:57:24.688Z,73.88
2022-12-15T22:59:54.519Z,74.57
2022-12-15T23:02:21.261Z,69.50
2022-12-15T23:04:47.812Z,73.47
2022-12-15T23:07:14.540Z,79.70
2022-12-15T23:09:40.968Z,78.93
2022-12-15T23:12:07.521Z,75.90
2022-12-15T23:14:52.661Z,75.82
2022-12-15T23:17:19.913Z,70.20
2022-12-15T23:19:46.742Z,75.57
2022-12-15T23:22:13.650Z,69.50
2022-12-15T23:24:40.132Z,68.75
2022-12-15T23:27:09.554Z,72.72
2022-12-15T23:29:36.021Z,71.35
2022-12-15T23:32:02.413Z,73.85
2022-12-15T23:34:28.912Z,77.72
2022-12-15T23:36:55.369Z,77.57
2022-12-15T23:39:21.791Z,73.05
2022-12-15T23:41:48.184Z,75.15
2022-12-15T23:44:14.911Z,81.68
2022-12-15T23:46:42.009Z,74.82
2022-12-15T23:49:08.519Z,79.20
2022-12-15T23:51:34.935Z,68.90
2022-12-15T23:54:01.563Z,76.15
2022-12-15T23:56:28.103Z,74.18
2022-12-15T23:58:56.026Z,68.38
